sensor_id;sensor_type;location;lat;lon;timestamp;P1;durP1;ratioP1;P2;durP2;ratioP2
59306;SDS011;47983;53.016;-2.260;2023-08-01T00:00:52;7.05;;;2.10;;
59306;SDS011;47983;53.016;-2.260;2023-08-01T00:03:20;7.68;;;2.45;;
59306;SDS011;47983;53.016;-2.260;2023-08-01T00:05:48;9.65;;;2.58;;
59306;SDS011;47983;53.016;-2.260;2023-08-01T00:08:16;9.82;;;2.03;;
59306;SDS011;47983;53.016;-2.260;2023-08-01T00:10:43;8.77;;;2.90;;
59306;SDS011;47983;53.016;-2.260;2023-08-01T00:13:11;6.68;;;2.50;;
59306;SDS011;47983;53.016;-2.260;2023-08-01T00:15:39;6.00;;;1.90;;
59306;SDS011;47983;53.016;-2.260;2023-08-01T00:18:13;10.75;;;2.25;;
59306;SDS011;47983;53.016;-2.260;2023-08-01T00:20:41;8.45;;;2.20;;
59306;SDS011;47983;53.016;-2.260;2023-08-01T00:23:09;8.57;;;2.35;;
59306;SDS011;47983;53.016;-2.260;2023-08-01T00:25:38;5.78;;;2.70;;
59306;SDS011;47983;53.016;-2.260;2023-08-01T00:28:06;10.60;;;1.95;;
59306;SDS011;47983;53.016;-2.260;2023-08-01T00:30:34;9.77;;;2.08;;
59306;SDS011;47983;53.016;-2.260;2023-08-01T00:33:02;12.40;;;2.78;;
59306;SDS011;47983;53.016;-2.260;2023-08-01T00:35:29;3.28;;;1.75;;
59306;SDS011;47983;53.016;-2.260;2023-08-01T00:37:57;5.03;;;1.60;;
59306;SDS011;47983;53.016;-2.260;2023-08-01T00:40:29;10.63;;;2.45;;
59306;SDS011;47983;53.016;-2.260;2023-08-01T00:43:00;8.40;;;1.92;;
59306;SDS011;47983;53.016;-2.260;2023-08-01T00:45:28;7.60;;;1.73;;
59306;SDS011;47983;53.016;-2.260;2023-08-01T00:47:57;10.90;;;1.88;;
59306;SDS011;47983;53.016;-2.260;2023-08-01T00:50:25;5.63;;;1.73;;
59306;SDS011;47983;53.016;-2.260;2023-08-01T00:52:53;8.25;;;2.70;;
59306;SDS011;47983;53.016;-2.260;2023-08-01T00:55:21;7.68;;;1.85;;
59306;SDS011;47983;53.016;-2.260;2023-08-01T00:57:50;7.82;;;1.63;;
59306;SDS011;47983;53.016;-2.260;2023-08-01T01:00:19;4.67;;;1.57;;
59306;SDS011;47983;53.016;-2.260;2023-08-01T01:02:48;9.35;;;1.30;;
59306;SDS011;47983;53.016;-2.260;2023-08-01T01:05:16;6.38;;;1.70;;
59306;SDS011;47983;53.016;-2.260;2023-08-01T01:07:44;6.18;;;1.63;;
59306;SDS011;47983;53.016;-2.260;2023-08-01T01:10:12;9.50;;;1.92;;
59306;SDS011;47983;53.016;-2.260;2023-08-01T01:12:40;9.57;;;2.08;;
59306;SDS011;47983;53.016;-2.260;2023-08-01T01:15:08;9.85;;;2.25;;
59306;SDS011;47983;53.016;-2.260;2023-08-01T01:17:36;10.63;;;2.13;;
59306;SDS011;47983;53.016;-2.260;2023-08-01T01:20:04;12.02;;;2.67;;
59306;SDS011;47983;53.016;-2.260;2023-08-01T01:22:32;7.40;;;1.70;;
59306;SDS011;47983;53.016;-2.260;2023-08-01T01:25:00;8.60;;;2.20;;
59306;SDS011;47983;53.016;-2.260;2023-08-01T01:27:30;8.80;;;1.87;;
59306;SDS011;47983;53.016;-2.260;2023-08-01T01:29:58;7.07;;;2.30;;
59306;SDS011;47983;53.016;-2.260;2023-08-01T01:32:27;18.75;;;2.35;;
59306;SDS011;47983;53.016;-2.260;2023-08-01T01:34:56;9.57;;;2.33;;
59306;SDS011;47983;53.016;-2.260;2023-08-01T01:37:23;19.95;;;2.88;;
59306;SDS011;47983;53.016;-2.260;2023-08-01T01:39:52;13.48;;;2.25;;
59306;SDS011;47983;53.016;-2.260;2023-08-01T01:42:19;15.05;;;2.38;;
59306;SDS011;47983;53.016;-2.260;2023-08-01T01:44:47;5.15;;;1.95;;
59306;SDS011;47983;53.016;-2.260;2023-08-01T01:47:15;7.88;;;1.98;;
59306;SDS011;47983;53.016;-2.260;2023-08-01T01:49:44;6.22;;;2.20;;
59306;SDS011;47983;53.016;-2.260;2023-08-01T01:52:11;6.97;;;2.10;;
59306;SDS011;47983;53.016;-2.260;2023-08-01T01:54:39;12.98;;;2.22;;
59306;SDS011;47983;53.016;-2.260;2023-08-01T01:57:07;7.03;;;1.65;;
59306;SDS011;47983;53.016;-2.260;2023-08-01T01:59:34;7.40;;;2.10;;
59306;SDS011;47983;53.016;-2.260;2023-08-01T02:02:02;8.85;;;2.58;;
59306;SDS011;47983;53.016;-2.260;2023-08-01T02:04:31;9.40;;;2.20;;
59306;SDS011;47983;53.016;-2.260;2023-08-01T02:06:58;8.77;;;2.13;;
59306;SDS011;47983;53.016;-2.260;2023-08-01T02:09:26;12.65;;;2.53;;
59306;SDS011;47983;53.016;-2.260;2023-08-01T02:11:54;10.98;;;1.88;;
59306;SDS011;47983;53.016;-2.260;2023-08-01T02:14:21;14.23;;;2.40;;
59306;SDS011;47983;53.016;-2.260;2023-08-01T02:16:50;6.53;;;1.58;;
59306;SDS011;47983;53.016;-2.260;2023-08-01T02:19:19;10.52;;;2.00;;
59306;SDS011;47983;53.016;-2.260;2023-08-01T02:21:46;9.38;;;1.92;;
59306;SDS011;47983;53.016;-2.260;2023-08-01T02:24:14;8.27;;;1.92;;
59306;SDS011;47983;53.016;-2.260;2023-08-01T02:26:41;5.07;;;1.70;;
59306;SDS011;47983;53.016;-2.260;2023-08-01T02:29:09;9.68;;;2.17;;
59306;SDS011;47983;53.016;-2.260;2023-08-01T02:31:37;11.30;;;2.30;;
59306;SDS011;47983;53.016;-2.260;2023-08-01T02:34:04;8.07;;;1.80;;
59306;SDS011;47983;53.016;-2.260;2023-08-01T02:36:32;11.57;;;1.83;;
59306;SDS011;47983;53.016;-2.260;2023-08-01T02:39:00;14.70;;;2.00;;
59306;SDS011;47983;53.016;-2.260;2023-08-01T02:41:27;5.07;;;1.83;;
59306;SDS011;47983;53.016;-2.260;2023-08-01T02:43:55;8.13;;;1.88;;
59306;SDS011;47983;53.016;-2.260;2023-08-01T02:46:23;8.20;;;2.13;;
59306;SDS011;47983;53.016;-2.260;2023-08-01T02:48:50;8.35;;;1.80;;
59306;SDS011;47983;53.016;-2.260;2023-08-01T02:51:19;9.43;;;1.58;;
59306;SDS011;47983;53.016;-2.260;2023-08-01T02:53:46;11.63;;;2.22;;
59306;SDS011;47983;53.016;-2.260;2023-08-01T02:56:14;4.90;;;1.50;;
59306;SDS011;47983;53.016;-2.260;2023-08-01T02:58:42;4.88;;;1.33;;
59306;SDS011;47983;53.016;-2.260;2023-08-01T03:01:10;15.10;;;2.80;;
59306;SDS011;47983;53.016;-2.260;2023-08-01T03:03:38;8.65;;;2.00;;
59306;SDS011;47983;53.016;-2.260;2023-08-01T03:06:06;11.95;;;1.88;;
59306;SDS011;47983;53.016;-2.260;2023-08-01T03:08:34;14.00;;;1.90;;
59306;SDS011;47983;53.016;-2.260;2023-08-01T03:11:02;8.10;;;1.92;;
59306;SDS011;47983;53.016;-2.260;2023-08-01T03:13:29;6.65;;;1.42;;
59306;SDS011;47983;53.016;-2.260;2023-08-01T03:15:57;7.65;;;1.50;;
59306;SDS011;47983;53.016;-2.260;2023-08-01T03:18:25;6.43;;;1.73;;
59306;SDS011;47983;53.016;-2.260;2023-08-01T03:20:53;4.53;;;1.75;;
59306;SDS011;47983;53.016;-2.260;2023-08-01T03:23:20;5.78;;;1.50;;
59306;SDS011;47983;53.016;-2.260;2023-08-01T03:25:48;10.52;;;1.95;;
59306;SDS011;47983;53.016;-2.260;2023-08-01T03:28:16;8.35;;;2.05;;
59306;SDS011;47983;53.016;-2.260;2023-08-01T03:30:44;8.50;;;2.00;;
59306;SDS011;47983;53.016;-2.260;2023-08-01T03:33:12;6.03;;;1.60;;
59306;SDS011;47983;53.016;-2.260;2023-08-01T03:35:40;6.75;;;1.88;;
59306;SDS011;47983;53.016;-2.260;2023-08-01T03:38:07;14.07;;;2.03;;
59306;SDS011;47983;53.016;-2.260;2023-08-01T03:40:36;7.22;;;1.52;;
59306;SDS011;47983;53.016;-2.260;2023-08-01T03:43:03;6.68;;;1.90;;
59306;SDS011;47983;53.016;-2.260;2023-08-01T03:45:33;14.88;;;2.75;;
59306;SDS011;47983;53.016;-2.260;2023-08-01T03:48:00;15.88;;;2.17;;
59306;SDS011;47983;53.016;-2.260;2023-08-01T03:50:28;7.88;;;1.67;;
59306;SDS011;47983;53.016;-2.260;2023-08-01T03:52:56;7.75;;;1.40;;
59306;SDS011;47983;53.016;-2.260;2023-08-01T03:55:23;12.27;;;1.90;;
59306;SDS011;47983;53.016;-2.260;2023-08-01T03:57:51;7.07;;;1.90;;
59306;SDS011;47983;53.016;-2.260;2023-08-01T04:00:19;8.55;;;1.90;;
59306;SDS011;47983;53.016;-2.260;2023-08-01T04:02:46;3.95;;;1.40;;
59306;SDS011;47983;53.016;-2.260;2023-08-01T04:05:17;5.60;;;1.30;;
59306;SDS011;47983;53.016;-2.260;2023-08-01T04:07:46;11.35;;;1.70;;
59306;SDS011;47983;53.016;-2.260;2023-08-01T04:10:13;11.82;;;2.03;;
59306;SDS011;47983;53.016;-2.260;2023-08-01T04:12:41;10.57;;;2.10;;
59306;SDS011;47983;53.016;-2.260;2023-08-01T04:15:10;7.22;;;1.73;;
59306;SDS011;47983;53.016;-2.260;2023-08-01T04:17:37;5.55;;;1.45;;
59306;SDS011;47983;53.016;-2.260;2023-08-01T04:20:05;10.80;;;1.67;;
59306;SDS011;47983;53.016;-2.260;2023-08-01T04:22:33;6.63;;;1.48;;
59306;SDS011;47983;53.016;-2.260;2023-08-01T04:25:01;5.47;;;1.50;;
59306;SDS011;47983;53.016;-2.260;2023-08-01T04:27:30;4.40;;;1.40;;
59306;SDS011;47983;53.016;-2.260;2023-08-01T04:29:58;11.00;;;1.50;;
59306;SDS011;47983;53.016;-2.260;2023-08-01T04:32:26;5.07;;;1.40;;
59306;SDS011;47983;53.016;-2.260;2023-08-01T04:34:53;2.85;;;1.65;;
59306;SDS011;47983;53.016;-2.260;2023-08-01T04:37:21;7.32;;;1.40;;
59306;SDS011;47983;53.016;-2.260;2023-08-01T04:39:50;5.43;;;1.40;;
59306;SDS011;47983;53.016;-2.260;2023-08-01T04:42:20;8.50;;;1.70;;
59306;SDS011;47983;53.016;-2.260;2023-08-01T04:44:48;7.65;;;1.70;;
59306;SDS011;47983;53.016;-2.260;2023-08-01T04:47:16;5.95;;;1.77;;
59306;SDS011;47983;53.016;-2.260;2023-08-01T04:49:44;7.82;;;1.58;;
59306;SDS011;47983;53.016;-2.260;2023-08-01T04:52:11;7.80;;;1.70;;
59306;SDS011;47983;53.016;-2.260;2023-08-01T04:54:39;6.03;;;1.20;;
59306;SDS011;47983;53.016;-2.260;2023-08-01T04:57:07;12.60;;;2.08;;
59306;SDS011;47983;53.016;-2.260;2023-08-01T04:59:34;9.55;;;1.80;;
59306;SDS011;47983;53.016;-2.260;2023-08-01T05:02:02;7.78;;;1.52;;
59306;SDS011;47983;53.016;-2.260;2023-08-01T05:04:30;10.63;;;1.92;;
59306;SDS011;47983;53.016;-2.260;2023-08-01T05:06:58;8.13;;;1.60;;
59306;SDS011;47983;53.016;-2.260;2023-08-01T05:09:26;7.80;;;1.40;;
59306;SDS011;47983;53.016;-2.260;2023-08-01T05:11:53;6.80;;;1.33;;
59306;SDS011;47983;53.016;-2.260;2023-08-01T05:14:21;8.88;;;1.83;;
59306;SDS011;47983;53.016;-2.260;2023-08-01T05:16:49;7.30;;;1.42;;
59306;SDS011;47983;53.016;-2.260;2023-08-01T05:19:17;9.00;;;1.75;;
59306;SDS011;47983;53.016;-2.260;2023-08-01T05:21:44;8.93;;;1.98;;
59306;SDS011;47983;53.016;-2.260;2023-08-01T05:24:13;5.65;;;1.65;;
59306;SDS011;47983;53.016;-2.260;2023-08-01T05:26:41;9.02;;;2.05;;
59306;SDS011;47983;53.016;-2.260;2023-08-01T05:29:09;7.13;;;1.60;;
59306;SDS011;47983;53.016;-2.260;2023-08-01T05:31:37;8.32;;;1.60;;
59306;SDS011;47983;53.016;-2.260;2023-08-01T05:34:07;5.70;;;1.60;;
59306;SDS011;47983;53.016;-2.260;2023-08-01T05:36:35;5.28;;;1.35;;
59306;SDS011;47983;53.016;-2.260;2023-08-01T05:39:04;6.88;;;1.52;;
59306;SDS011;47983;53.016;-2.260;2023-08-01T05:41:32;10.90;;;1.83;;
59306;SDS011;47983;53.016;-2.260;2023-08-01T05:44:00;7.20;;;1.70;;
59306;SDS011;47983;53.016;-2.260;2023-08-01T05:46:28;5.88;;;1.75;;
59306;SDS011;47983;53.016;-2.260;2023-08-01T05:48:56;10.57;;;1.67;;
59306;SDS011;47983;53.016;-2.260;2023-08-01T05:51:24;11.95;;;1.52;;
59306;SDS011;47983;53.016;-2.260;2023-08-01T05:53:51;7.15;;;2.28;;
59306;SDS011;47983;53.016;-2.260;2023-08-01T05:56:20;9.10;;;1.48;;
59306;SDS011;47983;53.016;-2.260;2023-08-01T05:58:48;6.45;;;1.55;;
59306;SDS011;47983;53.016;-2.260;2023-08-01T06:01:17;4.15;;;1.30;;
59306;SDS011;47983;53.016;-2.260;2023-08-01T06:03:45;8.10;;;1.40;;
59306;SDS011;47983;53.016;-2.260;2023-08-01T06:06:12;5.75;;;1.17;;
59306;SDS011;47983;53.016;-2.260;2023-08-01T06:08:40;4.65;;;1.33;;
59306;SDS011;47983;53.016;-2.260;2023-08-01T06:11:08;5.82;;;1.25;;
59306;SDS011;47983;53.016;-2.260;2023-08-01T06:13:38;7.07;;;1.40;;
59306;SDS011;47983;53.016;-2.260;2023-08-01T06:16:05;10.60;;;1.50;;
59306;SDS011;47983;53.016;-2.260;2023-08-01T06:18:33;6.40;;;1.83;;
59306;SDS011;47983;53.016;-2.260;2023-08-01T06:21:01;6.05;;;2.03;;
59306;SDS011;47983;53.016;-2.260;2023-08-01T06:23:29;6.40;;;1.30;;
59306;SDS011;47983;53.016;-2.260;2023-08-01T06:25:57;6.53;;;1.25;;
59306;SDS011;47983;53.016;-2.260;2023-08-01T06:28:25;3.85;;;1.25;;
59306;SDS011;47983;53.016;-2.260;2023-08-01T06:30:53;6.68;;;1.67;;
59306;SDS011;47983;53.016;-2.260;2023-08-01T06:33:20;9.68;;;1.60;;
59306;SDS011;47983;53.016;-2.260;2023-08-01T06:35:48;9.65;;;1.60;;
59306;SDS011;47983;53.016;-2.260;2023-08-01T06:38:25;6.05;;;1.30;;
59306;SDS011;47983;53.016;-2.260;2023-08-01T06:40:53;9.02;;;1.60;;
59306;SDS011;47983;53.016;-2.260;2023-08-01T06:43:20;7.20;;;1.10;;
59306;SDS011;47983;53.016;-2.260;2023-08-01T06:45:50;3.13;;;1.30;;
59306;SDS011;47983;53.016;-2.260;2023-08-01T06:48:18;4.15;;;0.90;;
59306;SDS011;47983;53.016;-2.260;2023-08-01T06:50:45;4.63;;;1.55;;
59306;SDS011;47983;53.016;-2.260;2023-08-01T06:53:13;4.90;;;1.23;;
59306;SDS011;47983;53.016;-2.260;2023-08-01T06:55:41;8.32;;;1.40;;
59306;SDS011;47983;53.016;-2.260;2023-08-01T06:58:08;6.07;;;1.35;;
59306;SDS011;47983;53.016;-2.260;2023-08-01T07:00:36;4.53;;;1.20;;
59306;SDS011;47983;53.016;-2.260;2023-08-01T07:03:04;7.05;;;1.20;;
59306;SDS011;47983;53.016;-2.260;2023-08-01T07:05:32;5.60;;;1.58;;
59306;SDS011;47983;53.016;-2.260;2023-08-01T07:07:59;5.72;;;1.17;;
59306;SDS011;47983;53.016;-2.260;2023-08-01T07:10:27;9.38;;;1.30;;
59306;SDS011;47983;53.016;-2.260;2023-08-01T07:12:55;8.18;;;1.60;;
59306;SDS011;47983;53.016;-2.260;2023-08-01T07:15:23;6.45;;;1.23;;
59306;SDS011;47983;53.016;-2.260;2023-08-01T07:18:01;8.25;;;1.13;;
59306;SDS011;47983;53.016;-2.260;2023-08-01T07:20:29;3.28;;;1.10;;
59306;SDS011;47983;53.016;-2.260;2023-08-01T07:22:57;4.15;;;1.20;;
59306;SDS011;47983;53.016;-2.260;2023-08-01T07:25:25;5.05;;;1.23;;
59306;SDS011;47983;53.016;-2.260;2023-08-01T07:27:53;9.32;;;1.50;;
59306;SDS011;47983;53.016;-2.260;2023-08-01T07:30:21;2.88;;;0.85;;
59306;SDS011;47983;53.016;-2.260;2023-08-01T07:32:48;7.22;;;1.08;;
59306;SDS011;47983;53.016;-2.260;2023-08-01T07:35:20;6.07;;;1.10;;
59306;SDS011;47983;53.016;-2.260;2023-08-01T07:37:48;5.47;;;1.75;;
59306;SDS011;47983;53.016;-2.260;2023-08-01T07:40:16;8.13;;;1.35;;
59306;SDS011;47983;53.016;-2.260;2023-08-01T07:42:44;5.25;;;1.40;;
59306;SDS011;47983;53.016;-2.260;2023-08-01T07:45:13;5.80;;;1.00;;
59306;SDS011;47983;53.016;-2.260;2023-08-01T07:47:41;6.22;;;1.10;;
59306;SDS011;47983;53.016;-2.260;2023-08-01T07:50:09;7.28;;;1.45;;
59306;SDS011;47983;53.016;-2.260;2023-08-01T07:52:36;8.77;;;1.45;;
59306;SDS011;47983;53.016;-2.260;2023-08-01T07:55:04;6.68;;;1.42;;
59306;SDS011;47983;53.016;-2.260;2023-08-01T07:57:33;5.30;;;1.15;;
59306;SDS011;47983;53.016;-2.260;2023-08-01T08:00:00;6.80;;;1.27;;
59306;SDS011;47983;53.016;-2.260;2023-08-01T08:02:40;7.20;;;1.10;;
59306;SDS011;47983;53.016;-2.260;2023-08-01T08:07:37;5.70;;;0.82;;
59306;SDS011;47983;53.016;-2.260;2023-08-01T08:10:05;3.35;;;1.00;;
59306;SDS011;47983;53.016;-2.260;2023-08-01T08:12:33;5.68;;;1.20;;
59306;SDS011;47983;53.016;-2.260;2023-08-01T08:15:01;8.40;;;0.88;;
59306;SDS011;47983;53.016;-2.260;2023-08-01T08:17:29;5.60;;;1.35;;
59306;SDS011;47983;53.016;-2.260;2023-08-01T08:19:56;4.82;;;1.02;;
59306;SDS011;47983;53.016;-2.260;2023-08-01T08:22:24;7.53;;;1.23;;
59306;SDS011;47983;53.016;-2.260;2023-08-01T08:24:52;5.40;;;1.35;;
59306;SDS011;47983;53.016;-2.260;2023-08-01T08:27:20;8.18;;;1.33;;
59306;SDS011;47983;53.016;-2.260;2023-08-01T08:29:48;6.70;;;1.30;;
59306;SDS011;47983;53.016;-2.260;2023-08-01T08:32:16;7.70;;;1.08;;
59306;SDS011;47983;53.016;-2.260;2023-08-01T08:34:44;5.80;;;1.10;;
59306;SDS011;47983;53.016;-2.260;2023-08-01T08:37:12;7.22;;;0.98;;
59306;SDS011;47983;53.016;-2.260;2023-08-01T08:39:39;3.55;;;1.33;;
59306;SDS011;47983;53.016;-2.260;2023-08-01T08:42:07;5.72;;;1.10;;
59306;SDS011;47983;53.016;-2.260;2023-08-01T08:44:37;3.78;;;0.88;;
59306;SDS011;47983;53.016;-2.260;2023-08-01T08:47:10;5.35;;;0.90;;
59306;SDS011;47983;53.016;-2.260;2023-08-01T08:49:40;7.20;;;1.13;;
59306;SDS011;47983;53.016;-2.260;2023-08-01T08:52:09;3.97;;;1.15;;
59306;SDS011;47983;53.016;-2.260;2023-08-01T08:54:37;5.05;;;0.80;;
59306;SDS011;47983;53.016;-2.260;2023-08-01T08:57:06;3.58;;;0.70;;
59306;SDS011;47983;53.016;-2.260;2023-08-01T08:59:34;5.63;;;0.80;;
59306;SDS011;47983;53.016;-2.260;2023-08-01T09:02:02;3.67;;;0.75;;
59306;SDS011;47983;53.016;-2.260;2023-08-01T09:04:31;6.47;;;0.75;;
59306;SDS011;47983;53.016;-2.260;2023-08-01T09:07:02;4.45;;;0.98;;
59306;SDS011;47983;53.016;-2.260;2023-08-01T09:09:34;2.95;;;0.93;;
59306;SDS011;47983;53.016;-2.260;2023-08-01T09:12:02;3.80;;;0.80;;
59306;SDS011;47983;53.016;-2.260;2023-08-01T09:14:32;1.80;;;0.70;;
59306;SDS011;47983;53.016;-2.260;2023-08-01T09:17:07;2.65;;;0.65;;
59306;SDS011;47983;53.016;-2.260;2023-08-01T09:19:36;4.18;;;0.65;;
59306;SDS011;47983;53.016;-2.260;2023-08-01T09:22:13;5.40;;;0.65;;
59306;SDS011;47983;53.016;-2.260;2023-08-01T09:24:51;1.70;;;0.70;;
59306;SDS011;47983;53.016;-2.260;2023-08-01T09:27:20;5.97;;;0.80;;
59306;SDS011;47983;53.016;-2.260;2023-08-01T09:29:52;3.38;;;0.68;;
59306;SDS011;47983;53.016;-2.260;2023-08-01T09:32:20;2.22;;;0.70;;
59306;SDS011;47983;53.016;-2.260;2023-08-01T09:34:48;3.45;;;0.80;;
59306;SDS011;47983;53.016;-2.260;2023-08-01T09:37:25;3.75;;;0.88;;
59306;SDS011;47983;53.016;-2.260;2023-08-01T09:39:56;4.18;;;0.90;;
59306;SDS011;47983;53.016;-2.260;2023-08-01T09:42:24;1.27;;;0.70;;
59306;SDS011;47983;53.016;-2.260;2023-08-01T09:44:52;4.45;;;0.88;;
59306;SDS011;47983;53.016;-2.260;2023-08-01T09:47:20;5.93;;;0.73;;
59306;SDS011;47983;53.016;-2.260;2023-08-01T09:49:50;4.68;;;0.80;;
59306;SDS011;47983;53.016;-2.260;2023-08-01T09:52:28;3.47;;;0.60;;
59306;SDS011;47983;53.016;-2.260;2023-08-01T09:54:56;5.43;;;1.08;;
59306;SDS011;47983;53.016;-2.260;2023-08-01T09:57:24;7.85;;;1.10;;
59306;SDS011;47983;53.016;-2.260;2023-08-01T09:59:56;4.50;;;0.50;;
59306;SDS011;47983;53.016;-2.260;2023-08-01T10:02:25;3.97;;;0.98;;
59306;SDS011;47983;53.016;-2.260;2023-08-01T10:04:58;1.35;;;0.50;;
59306;SDS011;47983;53.016;-2.260;2023-08-01T10:07:28;4.18;;;1.05;;
59306;SDS011;47983;53.016;-2.260;2023-08-01T10:09:58;4.43;;;0.73;;
59306;SDS011;47983;53.016;-2.260;2023-08-01T10:12:27;2.33;;;0.43;;
59306;SDS011;47983;53.016;-2.260;2023-08-01T10:14:56;5.72;;;0.70;;
59306;SDS011;47983;53.016;-2.260;2023-08-01T10:17:25;2.33;;;0.63;;
59306;SDS011;47983;53.016;-2.260;2023-08-01T10:19:55;6.17;;;0.60;;
59306;SDS011;47983;53.016;-2.260;2023-08-01T10:22:23;4.88;;;0.77;;
59306;SDS011;47983;53.016;-2.260;2023-08-01T10:24:52;1.13;;;0.70;;
59306;SDS011;47983;53.016;-2.260;2023-08-01T10:27:21;6.28;;;0.70;;
59306;SDS011;47983;53.016;-2.260;2023-08-01T10:30:01;1.80;;;0.50;;
59306;SDS011;47983;53.016;-2.260;2023-08-01T10:32:32;3.08;;;0.70;;
59306;SDS011;47983;53.016;-2.260;2023-08-01T10:35:04;3.22;;;0.45;;
59306;SDS011;47983;53.016;-2.260;2023-08-01T10:37:43;4.20;;;0.65;;
59306;SDS011;47983;53.016;-2.260;2023-08-01T10:40:14;6.53;;;1.00;;
59306;SDS011;47983;53.016;-2.260;2023-08-01T10:42:43;1.58;;;0.68;;
59306;SDS011;47983;53.016;-2.260;2023-08-01T10:45:22;0.77;;;0.40;;
59306;SDS011;47983;53.016;-2.260;2023-08-01T10:47:54;3.25;;;0.50;;
59306;SDS011;47983;53.016;-2.260;2023-08-01T10:50:21;2.25;;;0.60;;
59306;SDS011;47983;53.016;-2.260;2023-08-01T10:52:50;3.30;;;0.50;;
59306;SDS011;47983;53.016;-2.260;2023-08-01T10:55:40;2.70;;;1.00;;
59306;SDS011;47983;53.016;-2.260;2023-08-01T10:58:09;3.88;;;0.50;;
59306;SDS011;47983;53.016;-2.260;2023-08-01T11:00:37;1.23;;;0.40;;
59306;SDS011;47983;53.016;-2.260;2023-08-01T11:03:05;1.25;;;0.30;;
59306;SDS011;47983;53.016;-2.260;2023-08-01T11:05:33;1.20;;;0.32;;
59306;SDS011;47983;53.016;-2.260;2023-08-01T11:08:02;5.47;;;0.50;;
59306;SDS011;47983;53.016;-2.260;2023-08-01T11:10:31;2.30;;;0.40;;
59306;SDS011;47983;53.016;-2.260;2023-08-01T11:12:59;6.45;;;1.00;;
59306;SDS011;47983;53.016;-2.260;2023-08-01T11:15:27;2.35;;;0.70;;
59306;SDS011;47983;53.016;-2.260;2023-08-01T11:17:55;3.40;;;1.10;;
59306;SDS011;47983;53.016;-2.260;2023-08-01T11:20:24;4.43;;;0.93;;
59306;SDS011;47983;53.016;-2.260;2023-08-01T11:28:22;2.65;;;0.60;;
59306;SDS011;47983;53.016;-2.260;2023-08-01T11:30:51;2.83;;;0.60;;
59306;SDS011;47983;53.016;-2.260;2023-08-01T11:33:22;4.60;;;0.68;;
59306;SDS011;47983;53.016;-2.260;2023-08-01T11:35:51;3.85;;;0.50;;
59306;SDS011;47983;53.016;-2.260;2023-08-01T11:38:27;2.00;;;0.68;;
59306;SDS011;47983;53.016;-2.260;2023-08-01T11:43:25;2.22;;;0.75;;
59306;SDS011;47983;53.016;-2.260;2023-08-01T11:45:53;1.83;;;0.40;;
59306;SDS011;47983;53.016;-2.260;2023-08-01T11:48:22;1.80;;;0.40;;
59306;SDS011;47983;53.016;-2.260;2023-08-01T11:51:00;3.10;;;0.50;;
59306;SDS011;47983;53.016;-2.260;2023-08-01T11:53:29;2.15;;;0.73;;
59306;SDS011;47983;53.016;-2.260;2023-08-01T11:55:57;2.70;;;1.20;;
59306;SDS011;47983;53.016;-2.260;2023-08-01T11:58:28;1.50;;;0.70;;
59306;SDS011;47983;53.016;-2.260;2023-08-01T12:06:12;5.30;;;0.70;;
59306;SDS011;47983;53.016;-2.260;2023-08-01T12:08:44;2.28;;;0.55;;
59306;SDS011;47983;53.016;-2.260;2023-08-01T12:14:08;3.25;;;0.60;;
59306;SDS011;47983;53.016;-2.260;2023-08-01T12:16:42;1.75;;;0.80;;
59306;SDS011;47983;53.016;-2.260;2023-08-01T12:19:19;2.30;;;0.47;;
59306;SDS011;47983;53.016;-2.260;2023-08-01T12:21:48;5.13;;;0.50;;
59306;SDS011;47983;53.016;-2.260;2023-08-01T12:24:16;3.88;;;0.55;;
59306;SDS011;47983;53.016;-2.260;2023-08-01T12:26:44;3.47;;;0.70;;
59306;SDS011;47983;53.016;-2.260;2023-08-01T12:29:11;2.25;;;0.43;;
59306;SDS011;47983;53.016;-2.260;2023-08-01T12:31:39;2.67;;;0.52;;
59306;SDS011;47983;53.016;-2.260;2023-08-01T12:34:07;4.75;;;0.82;;
59306;SDS011;47983;53.016;-2.260;2023-08-01T12:36:35;5.93;;;0.40;;
59306;SDS011;47983;53.016;-2.260;2023-08-01T12:39:03;3.58;;;0.70;;
59306;SDS011;47983;53.016;-2.260;2023-08-01T12:41:32;4.25;;;0.80;;
59306;SDS011;47983;53.016;-2.260;2023-08-01T12:44:00;3.08;;;0.60;;
59306;SDS011;47983;53.016;-2.260;2023-08-01T12:46:27;3.28;;;0.80;;
59306;SDS011;47983;53.016;-2.260;2023-08-01T12:48:55;2.67;;;0.68;;
59306;SDS011;47983;53.016;-2.260;2023-08-01T12:51:23;3.05;;;0.70;;
59306;SDS011;47983;53.016;-2.260;2023-08-01T12:53:51;2.70;;;1.00;;
59306;SDS011;47983;53.016;-2.260;2023-08-01T12:56:19;3.55;;;0.50;;
59306;SDS011;47983;53.016;-2.260;2023-08-01T12:58:47;5.65;;;0.80;;
59306;SDS011;47983;53.016;-2.260;2023-08-01T13:01:14;5.40;;;0.80;;
59306;SDS011;47983;53.016;-2.260;2023-08-01T13:03:42;3.72;;;0.98;;
59306;SDS011;47983;53.016;-2.260;2023-08-01T13:06:11;5.05;;;1.27;;
59306;SDS011;47983;53.016;-2.260;2023-08-01T13:08:40;2.85;;;0.70;;
59306;SDS011;47983;53.016;-2.260;2023-08-01T13:11:11;4.82;;;0.70;;
59306;SDS011;47983;53.016;-2.260;2023-08-01T13:13:40;2.20;;;0.60;;
59306;SDS011;47983;53.016;-2.260;2023-08-01T13:16:09;4.20;;;0.75;;
59306;SDS011;47983;53.016;-2.260;2023-08-01T13:18:37;0.63;;;0.30;;
59306;SDS011;47983;53.016;-2.260;2023-08-01T13:21:12;4.72;;;0.63;;
59306;SDS011;47983;53.016;-2.260;2023-08-01T13:23:40;3.00;;;0.67;;
59306;SDS011;47983;53.016;-2.260;2023-08-01T13:26:08;3.38;;;0.70;;
59306;SDS011;47983;53.016;-2.260;2023-08-01T13:28:35;2.03;;;0.60;;
59306;SDS011;47983;53.016;-2.260;2023-08-01T13:31:03;2.42;;;0.60;;
59306;SDS011;47983;53.016;-2.260;2023-08-01T13:33:31;3.38;;;0.65;;
59306;SDS011;47983;53.016;-2.260;2023-08-01T13:35:59;4.50;;;0.60;;
59306;SDS011;47983;53.016;-2.260;2023-08-01T13:38:27;2.90;;;0.50;;
59306;SDS011;47983;53.016;-2.260;2023-08-01T13:40:59;5.57;;;0.95;;
59306;SDS011;47983;53.016;-2.260;2023-08-01T13:43:28;2.88;;;0.85;;
59306;SDS011;47983;53.016;-2.260;2023-08-01T13:45:56;4.32;;;0.80;;
59306;SDS011;47983;53.016;-2.260;2023-08-01T13:48:24;1.75;;;0.73;;
59306;SDS011;47983;53.016;-2.260;2023-08-01T13:50:52;4.00;;;0.50;;
59306;SDS011;47983;53.016;-2.260;2023-08-01T13:53:19;6.07;;;0.98;;
59306;SDS011;47983;53.016;-2.260;2023-08-01T13:55:47;3.38;;;0.90;;
59306;SDS011;47983;53.016;-2.260;2023-08-01T13:58:15;1.13;;;0.50;;
59306;SDS011;47983;53.016;-2.260;2023-08-01T14:00:43;3.60;;;0.60;;
59306;SDS011;47983;53.016;-2.260;2023-08-01T14:03:10;3.47;;;1.02;;
59306;SDS011;47983;53.016;-2.260;2023-08-01T14:05:38;4.13;;;0.90;;
59306;SDS011;47983;53.016;-2.260;2023-08-01T14:08:06;6.25;;;0.90;;
59306;SDS011;47983;53.016;-2.260;2023-08-01T14:10:34;4.22;;;0.60;;
59306;SDS011;47983;53.016;-2.260;2023-08-01T14:13:02;2.58;;;0.70;;
59306;SDS011;47983;53.016;-2.260;2023-08-01T14:15:29;6.45;;;0.73;;
59306;SDS011;47983;53.016;-2.260;2023-08-01T14:17:57;3.58;;;1.10;;
59306;SDS011;47983;53.016;-2.260;2023-08-01T14:20:25;6.85;;;0.82;;
59306;SDS011;47983;53.016;-2.260;2023-08-01T14:22:53;4.05;;;0.80;;
59306;SDS011;47983;53.016;-2.260;2023-08-01T14:25:20;4.13;;;0.88;;
59306;SDS011;47983;53.016;-2.260;2023-08-01T14:27:48;7.13;;;1.10;;
59306;SDS011;47983;53.016;-2.260;2023-08-01T14:30:16;2.58;;;1.00;;
59306;SDS011;47983;53.016;-2.260;2023-08-01T14:32:43;7.30;;;1.10;;
59306;SDS011;47983;53.016;-2.260;2023-08-01T14:35:11;2.95;;;0.50;;
59306;SDS011;47983;53.016;-2.260;2023-08-01T14:37:39;6.07;;;0.70;;
59306;SDS011;47983;53.016;-2.260;2023-08-01T14:40:09;3.00;;;0.60;;
59306;SDS011;47983;53.016;-2.260;2023-08-01T14:42:37;3.22;;;0.47;;
59306;SDS011;47983;53.016;-2.260;2023-08-01T14:45:08;5.45;;;0.90;;
59306;SDS011;47983;53.016;-2.260;2023-08-01T14:47:36;3.88;;;0.77;;
59306;SDS011;47983;53.016;-2.260;2023-08-01T14:50:05;3.60;;;0.60;;
59306;SDS011;47983;53.016;-2.260;2023-08-01T14:52:33;4.43;;;0.60;;
59306;SDS011;47983;53.016;-2.260;2023-08-01T14:55:01;13.30;;;1.10;;
59306;SDS011;47983;53.016;-2.260;2023-08-01T14:57:28;2.88;;;0.55;;
59306;SDS011;47983;53.016;-2.260;2023-08-01T14:59:56;4.32;;;0.88;;